createdAt,value
2019-04-21T00:01:59.649Z,30.30
2019-04-21T00:04:43.273Z,31.57
2019-04-21T00:07:23.445Z,29.30
2019-04-21T00:09:54.942Z,30.00
2019-04-21T00:12:18.077Z,29.80
2019-04-21T00:14:43.860Z,26.80
2019-04-21T00:17:09.729Z,31.80
2019-04-21T00:19:39.598Z,27.00
2019-04-21T00:22:22.915Z,35.45
2019-04-21T00:24:56.177Z,36.38
2019-04-21T00:27:28.548Z,26.55
2019-04-21T00:29:59.144Z,33.60
2019-04-21T00:32:25.717Z,36.28
2019-04-21T00:34:53.433Z,32.50
2019-04-21T00:37:24.183Z,31.68
2019-04-21T00:40:03.762Z,33.60
2019-04-21T00:42:36.225Z,26.93
2019-04-21T00:45:04.926Z,33.15
2019-04-21T00:47:34.086Z,28.87
2019-04-21T00:50:05.282Z,28.00
2019-04-21T00:55:29.851Z,25.60
2019-04-21T00:58:00.401Z,32.10
2019-04-21T01:00:26.152Z,35.83
2019-04-21T01:02:57.941Z,31.30
2019-04-21T01:05:33.810Z,30.10
2019-04-21T01:07:54.633Z,28.77
2019-04-21T01:10:21.067Z,31.73
2019-04-21T01:12:58.932Z,26.15
2019-04-21T01:17:57.398Z,28.98
2019-04-21T01:20:16.982Z,30.82
2019-04-21T01:22:39.969Z,35.58
2019-04-21T01:25:21.845Z,33.80
2019-04-21T01:27:56.436Z,28.05
2019-04-21T01:30:29.777Z,31.10
2019-04-21T01:33:07.765Z,31.35
2019-04-21T01:35:38.181Z,25.92
2019-04-21T01:38:07.159Z,27.15
2019-04-21T01:40:33.773Z,31.50
2019-04-21T01:43:06.114Z,30.70
2019-04-21T01:45:37.022Z,33.58
2019-04-21T01:48:06.640Z,30.48
2019-04-21T01:50:36.317Z,22.42
2019-04-21T01:53:18.597Z,25.10
2019-04-21T01:55:48.375Z,21.42
2019-04-21T01:58:19.716Z,26.77
2019-04-21T02:00:56.909Z,33.75
2019-04-21T02:03:46.993Z,34.35
2019-04-21T02:06:11.099Z,29.15
2019-04-21T02:08:31.302Z,27.73
2019-04-21T02:11:07.851Z,21.42
2019-04-21T02:13:44.319Z,21.80
2019-04-21T02:16:06.816Z,24.27
2019-04-21T02:18:33.390Z,23.38
2019-04-21T02:20:52.865Z,25.30
2019-04-21T02:23:47.973Z,35.30
2019-04-21T02:26:11.380Z,26.60
2019-04-21T02:31:26.617Z,27.35
2019-04-21T02:36:30.886Z,25.75
2019-04-21T02:38:57.832Z,24.23
2019-04-21T02:41:25.305Z,25.85
2019-04-21T02:44:00.454Z,25.85
2019-04-21T02:46:35.334Z,23.50
2019-04-21T02:49:04.015Z,24.05
2019-04-21T03:01:46.330Z,29.25
2019-04-21T03:04:35.662Z,27.37
2019-04-21T03:07:09.465Z,29.57
2019-04-21T03:09:31.068Z,27.82
2019-04-21T03:14:50.472Z,28.32
2019-04-21T03:17:05.722Z,29.35
2019-04-21T03:19:44.784Z,32.63
2019-04-21T03:22:20.851Z,30.05
2019-04-21T03:24:54.023Z,26.25
2019-04-21T03:32:32.679Z,24.35
2019-04-21T03:37:16.139Z,23.52
2019-04-21T03:39:48.543Z,22.67
2019-04-21T03:42:21.599Z,23.85
2019-04-21T03:44:37.045Z,23.00
2019-04-21T03:47:18.862Z,22.67
2019-04-21T03:49:47.379Z,19.30
2019-04-21T03:58:05.128Z,18.30
2019-04-21T04:00:42.557Z,22.93
2019-04-21T04:03:35.255Z,23.27
2019-04-21T04:08:31.479Z,32.40
2019-04-21T04:11:03.068Z,24.23
2019-04-21T04:13:34.164Z,25.68
2019-04-21T04:16:01.320Z,22.55
2019-04-21T04:18:42.249Z,29.63
2019-04-21T04:21:10.181Z,26.42
2019-04-21T04:23:35.531Z,23.62
2019-04-21T04:26:02.334Z,25.27
2019-04-21T04:28:38.400Z,24.82
2019-04-21T04:31:05.055Z,24.72
2019-04-21T04:33:43.735Z,25.25
2019-04-21T04:38:39.248Z,29.23
2019-04-21T04:41:24.438Z,26.50
2019-04-21T04:44:07.142Z,22.07
2019-04-21T04:46:29.359Z,25.62
2019-04-21T04:49:19.790Z,23.35
2019-04-21T04:51:33.414Z,24.47
2019-04-21T05:01:34.930Z,22.65
2019-04-21T05:09:15.204Z,23.32
2019-04-21T05:11:44.616Z,23.50
2019-04-21T05:14:09.970Z,27.05
2019-04-21T05:16:44.102Z,24.15
2019-04-21T05:21:34.218Z,20.15
2019-04-21T05:26:23.112Z,21.15
2019-04-21T05:28:51.768Z,19.05
2019-04-21T05:31:53.799Z,19.10
2019-04-21T05:34:18.863Z,21.15
2019-04-21T05:36:53.901Z,23.62
2019-04-21T05:39:26.216Z,17.65
2019-04-21T05:41:50.841Z,22.52
2019-04-21T05:44:44.508Z,23.12
2019-04-21T05:47:13.959Z,23.05
2019-04-21T05:49:34.121Z,25.77
2019-04-21T05:52:04.108Z,24.05
2019-04-21T05:54:44.305Z,25.57
2019-04-21T05:57:05.836Z,25.12
2019-04-21T05:59:47.982Z,26.60
2019-04-21T06:09:55.376Z,24.95
2019-04-21T06:12:21.101Z,24.50
2019-04-21T06:14:55.856Z,24.57
2019-04-21T06:17:30.314Z,23.45
2019-04-21T06:22:25.939Z,25.30
2019-04-21T06:27:44.409Z,23.15
2019-04-21T06:30:01.116Z,21.52
2019-04-21T06:35:20.744Z,22.15
2019-04-21T06:40:23.095Z,23.75
2019-04-21T06:42:50.288Z,22.17
2019-04-21T06:45:18.811Z,20.05
2019-04-21T06:50:19.023Z,22.13
2019-04-21T06:55:20.126Z,27.75
2019-04-21T06:57:53.058Z,23.80
2019-04-21T07:00:19.642Z,23.52
2019-04-21T07:03:04.423Z,23.20
2019-04-21T07:05:31.069Z,24.20
2019-04-21T07:08:19.193Z,26.55
2019-04-21T07:10:54.628Z,27.40
2019-04-21T07:12:57.577Z,27.67
2019-04-21T07:15:40.931Z,25.48
2019-04-21T07:18:04.402Z,23.70
2019-04-21T07:20:37.996Z,24.43
2019-04-21T07:23:11.947Z,29.63
2019-04-21T07:25:45.896Z,26.52
2019-04-21T07:28:10.240Z,24.60
2019-04-21T07:30:43.847Z,26.07
2019-04-21T07:33:44.803Z,26.93
2019-04-21T07:35:47.057Z,26.20
2019-04-21T07:38:19.591Z,28.90
2019-04-21T07:40:41.661Z,25.20
2019-04-21T07:43:12.121Z,27.77
2019-04-21T07:45:45.644Z,27.00
2019-04-21T07:48:19.237Z,26.95
2019-04-21T07:50:57.825Z,32.13
2019-04-21T07:53:36.766Z,28.77
2019-04-21T07:55:42.400Z,27.87
2019-04-21T07:58:37.393Z,29.32
2019-04-21T08:01:07.751Z,30.70
2019-04-21T08:03:38.741Z,31.70
2019-04-21T08:06:18.744Z,32.50
2019-04-21T08:08:41.078Z,32.00
2019-04-21T08:11:12.332Z,29.90
2019-04-21T08:16:17.189Z,34.50
2019-04-21T08:18:48.702Z,33.05
2019-04-21T08:21:15.109Z,33.20
2019-04-21T08:23:44.846Z,32.55
2019-04-21T08:26:34.160Z,26.87
2019-04-21T08:29:04.597Z,30.25
2019-04-21T08:34:09.519Z,27.40
2019-04-21T08:36:44.838Z,26.65
2019-04-21T08:39:03.237Z,24.55
2019-04-21T08:41:36.239Z,25.75
2019-04-21T08:44:04.956Z,25.65
2019-04-21T08:46:40.626Z,26.50
2019-04-21T08:49:08.055Z,26.45
2019-04-21T08:51:39.530Z,25.75
2019-04-21T08:54:17.048Z,24.10
2019-04-21T08:56:46.734Z,26.82
2019-04-21T09:01:55.555Z,30.88
2019-04-21T09:04:29.058Z,27.13
2019-04-21T09:07:21.363Z,26.55
2019-04-21T09:09:39.579Z,29.70
2019-04-21T09:12:07.107Z,31.50
2019-04-21T09:14:36.855Z,27.50
2019-04-21T09:17:05.205Z,26.45
2019-04-21T09:19:51.024Z,24.52
2019-04-21T09:22:05.622Z,24.47
2019-04-21T09:24:43.013Z,21.37
2019-04-21T09:27:11.232Z,19.75
2019-04-21T09:29:32.483Z,24.37
2019-04-21T09:31:59.512Z,23.15
2019-04-21T09:34:35.876Z,21.45
2019-04-21T09:37:12.516Z,23.20
2019-04-21T09:39:31.544Z,25.30
2019-04-21T09:42:04.360Z,26.00
2019-04-21T09:44:38.224Z,21.87
2019-04-21T09:47:06.645Z,22.02
2019-04-21T09:49:37.184Z,15.95
2019-04-21T09:52:06.670Z,13.83
2019-04-21T09:54:45.961Z,14.55
2019-04-21T09:57:14.153Z,13.53
2019-04-21T09:59:40.662Z,16.52
2019-04-21T10:02:15.544Z,14.00
2019-04-21T10:04:40.071Z,13.05
2019-04-21T10:07:21.896Z,13.15
2019-04-21T10:09:39.964Z,14.47
2019-04-21T10:12:09.785Z,15.93
2019-04-21T10:14:39.177Z,13.22
2019-04-21T10:17:21.987Z,11.93
2019-04-21T10:19:52.857Z,11.25
2019-04-21T10:22:23.225Z,11.10
2019-04-21T10:24:52.558Z,10.88
2019-04-21T10:27:23.226Z,10.00
2019-04-21T10:29:52.377Z,12.23
2019-04-21T10:32:23.634Z,11.53
2019-04-21T10:34:52.829Z,12.05
2019-04-21T10:37:35.362Z,11.05
2019-04-21T10:39:53.798Z,10.28
2019-04-21T10:42:23.690Z,13.22
2019-04-21T10:44:52.809Z,11.75
2019-04-21T10:47:22.805Z,10.20
2019-04-21T10:49:52.862Z,12.33
2019-04-21T10:52:24.795Z,11.15
2019-04-21T10:55:12.876Z,10.13
2019-04-21T10:57:30.432Z,10.50
2019-04-21T11:00:01.314Z,10.68
2019-04-21T11:02:32.851Z,9.10
2019-04-21T11:05:02.970Z,11.12
2019-04-21T11:07:59.695Z,9.70
2019-04-21T11:10:18.155Z,12.30
2019-04-21T11:12:48.362Z,9.05
2019-04-21T11:15:17.557Z,9.83
2019-04-21T11:17:48.766Z,10.40
2019-04-21T11:20:19.235Z,10.00
2019-04-21T11:22:49.377Z,10.65
2019-04-21T11:25:20.044Z,12.63
2019-04-21T11:27:49.277Z,12.50
2019-04-21T11:30:19.898Z,11.12
2019-04-21T11:32:49.760Z,11.57
2019-04-21T11:35:21.171Z,11.97
2019-04-21T11:37:50.345Z,12.47
2019-04-21T11:40:21.563Z,13.28
2019-04-21T11:42:51.446Z,13.08
2019-04-21T11:45:34.525Z,11.48
2019-04-21T11:48:10.371Z,17.05
2019-04-21T11:50:39.602Z,14.50
2019-04-21T11:53:08.803Z,12.30
2019-04-21T11:55:41.063Z,16.00
2019-04-21T11:58:09.838Z,13.03
2019-04-21T12:03:29.459Z,15.18
2019-04-21T12:05:59.560Z,13.10
2019-04-21T12:08:37.726Z,11.85
2019-04-21T12:10:59.744Z,11.88
2019-04-21T12:13:30.040Z,13.18
2019-04-21T12:15:59.222Z,15.75
2019-04-21T12:18:30.134Z,13.78
2019-04-21T12:20:59.047Z,12.43
2019-04-21T12:23:28.143Z,13.18
2019-04-21T12:25:58.992Z,14.63
2019-04-21T12:28:28.384Z,15.38
2019-04-21T12:31:19.798Z,15.18
2019-04-21T12:33:54.044Z,12.10
2019-04-21T12:36:24.168Z,13.90
2019-04-21T12:38:56.276Z,14.58
2019-04-21T12:41:24.631Z,13.88
2019-04-21T12:43:54.861Z,13.08
2019-04-21T12:46:25.586Z,15.40
2019-04-21T12:48:55.879Z,14.35
2019-04-21T12:51:25.970Z,13.03
2019-04-21T12:53:55.172Z,12.75
2019-04-21T12:56:37.598Z,15.68
2019-04-21T12:59:07.872Z,16.05
2019-04-21T13:01:37.174Z,15.25
2019-04-21T13:04:06.119Z,17.00
2019-04-21T13:06:35.309Z,15.83
2019-04-21T13:09:10.782Z,14.28
2019-04-21T13:11:37.252Z,16.00
2019-04-21T13:14:06.349Z,16.15
2019-04-21T13:16:35.487Z,16.32
2019-04-21T13:19:05.074Z,17.67
2019-04-21T13:21:34.381Z,22.48
2019-04-21T13:24:03.422Z,20.70
2019-04-21T13:26:39.448Z,20.50
2019-04-21T13:29:03.900Z,18.23
2019-04-21T13:31:34.144Z,18.65
2019-04-21T13:34:04.169Z,19.82
2019-04-21T13:36:33.780Z,18.85
2019-04-21T13:39:33.037Z,20.32
2019-04-21T13:41:47.402Z,20.80
2019-04-21T13:44:13.479Z,17.80
2019-04-21T13:46:45.105Z,18.67
2019-04-21T13:49:14.762Z,19.65
2019-04-21T13:51:44.070Z,17.62
2019-04-21T13:54:13.885Z,18.60
2019-04-21T13:56:44.908Z,17.25
2019-04-21T13:59:15.975Z,17.23
2019-04-21T14:01:45.790Z,15.75
2019-04-21T14:04:15.871Z,15.88
2019-04-21T14:06:49.991Z,18.00
2019-04-21T14:09:19.941Z,16.37
2019-04-21T14:11:52.507Z,16.67
2019-04-21T14:14:21.081Z,16.10
2019-04-21T14:16:50.177Z,16.10
2019-04-21T14:19:19.408Z,15.13
2019-04-21T14:21:51.110Z,13.30
2019-04-21T14:24:22.531Z,12.88
2019-04-21T14:26:52.238Z,13.93
2019-04-21T14:29:21.770Z,15.05
2019-04-21T14:31:53.174Z,14.15
2019-04-21T14:34:23.894Z,13.83
2019-04-21T14:36:54.900Z,15.93
2019-04-21T14:39:26.400Z,16.70
2019-04-21T14:41:56.081Z,16.82
2019-04-21T14:44:27.134Z,18.27
2019-04-21T14:47:05.027Z,17.70
2019-04-21T14:49:47.094Z,20.62
2019-04-21T14:52:19.172Z,19.77
2019-04-21T14:54:50.842Z,19.27
2019-04-21T14:57:21.209Z,22.75
2019-04-21T14:59:51.234Z,21.68
2019-04-21T15:02:20.345Z,20.23
2019-04-21T15:04:49.660Z,21.30
2019-04-21T15:07:19.257Z,24.30
2019-04-21T15:10:01.181Z,25.92
2019-04-21T15:12:20.139Z,24.95
2019-04-21T15:14:51.896Z,29.32
2019-04-21T15:17:22.633Z,29.07
2019-04-21T15:19:59.698Z,29.80
2019-04-21T15:22:23.985Z,26.70
2019-04-21T15:24:54.497Z,30.37
2019-04-21T15:27:24.866Z,27.67
2019-04-21T15:29:54.055Z,27.58
2019-04-21T15:32:24.241Z,29.05
2019-04-21T15:34:54.032Z,31.90
2019-04-21T15:37:24.120Z,29.50
2019-04-21T15:39:53.912Z,28.70
2019-04-21T15:42:24.305Z,27.87
2019-04-21T15:44:54.557Z,26.57
2019-04-21T15:47:23.986Z,28.45
2019-04-21T15:50:02.781Z,26.57
2019-04-21T15:52:27.942Z,29.50
2019-04-21T15:54:59.027Z,24.65
2019-04-21T15:57:48.910Z,25.52
2019-04-21T16:00:20.717Z,24.27
2019-04-21T16:02:50.815Z,24.75
2019-04-21T16:05:20.303Z,26.05
2019-04-21T16:07:49.994Z,25.05
2019-04-21T16:10:30.943Z,25.60
2019-04-21T16:12:52.034Z,24.00
2019-04-21T16:15:22.787Z,28.95
2019-04-21T16:17:53.112Z,22.90
2019-04-21T16:20:23.950Z,25.95
2019-04-21T16:22:53.048Z,23.60
2019-04-21T16:25:26.720Z,26.93
2019-04-21T16:27:57.174Z,28.07
2019-04-21T16:30:28.588Z,21.40
2019-04-21T16:32:57.571Z,23.62
2019-04-21T16:35:27.719Z,22.98
2019-04-21T16:37:58.742Z,23.22
2019-04-21T16:40:31.063Z,24.40
2019-04-21T16:42:58.377Z,23.50
2019-04-21T16:45:28.624Z,25.68
2019-04-21T16:47:59.019Z,23.15
2019-04-21T16:50:28.079Z,22.82
2019-04-21T16:53:01.756Z,23.22
2019-04-21T16:55:51.164Z,23.12
2019-04-21T16:58:29.102Z,22.05
2019-04-21T17:01:10.978Z,21.12
2019-04-21T17:03:36.841Z,22.22
2019-04-21T17:06:07.001Z,19.65
2019-04-21T17:08:36.927Z,20.95
2019-04-21T17:11:12.495Z,21.85
2019-04-21T17:13:39.763Z,20.92
2019-04-21T17:16:36.511Z,23.42
2019-04-21T17:18:53.930Z,19.85
2019-04-21T17:21:15.224Z,23.20
2019-04-21T17:23:44.374Z,20.75
2019-04-21T17:26:15.146Z,20.15
2019-04-21T17:28:45.122Z,21.77
2019-04-21T17:31:14.340Z,19.30
2019-04-21T17:33:46.486Z,20.10
2019-04-21T17:36:14.806Z,21.73
2019-04-21T17:38:44.380Z,19.12
2019-04-21T17:41:23.657Z,17.62
2019-04-21T17:43:45.672Z,16.55
2019-04-21T17:46:23.051Z,19.42
2019-04-21T17:48:47.249Z,18.45
2019-04-21T17:51:25.649Z,16.70
2019-04-21T17:54:00.707Z,16.90
2019-04-21T17:56:55.117Z,15.65
2019-04-21T17:59:28.025Z,16.93
2019-04-21T18:01:47.218Z,18.20
2019-04-21T18:04:43.107Z,16.35
2019-04-21T18:07:05.179Z,19.75
2019-04-21T18:09:51.909Z,18.23
2019-04-21T18:12:13.641Z,16.67
2019-04-21T18:14:30.340Z,14.63
2019-04-21T18:17:00.353Z,16.77
2019-04-21T18:19:34.775Z,14.58
2019-04-21T18:22:06.466Z,17.32
2019-04-21T18:24:44.445Z,16.62
2019-04-21T18:27:07.810Z,16.00
2019-04-21T18:29:36.582Z,16.80
2019-04-21T18:32:06.312Z,15.03
2019-04-21T18:34:43.852Z,14.87
2019-04-21T18:37:17.422Z,16.05
2019-04-21T18:39:59.985Z,12.43
2019-04-21T18:42:37.178Z,14.65
2019-04-21T18:45:34.396Z,12.45
2019-04-21T18:47:58.508Z,14.18
2019-04-21T18:50:42.062Z,15.23
2019-04-21T18:53:18.199Z,15.18
2019-04-21T18:55:45.369Z,14.23
2019-04-21T18:58:12.500Z,12.95
2019-04-21T19:00:45.313Z,18.02
2019-04-21T19:03:14.052Z,15.50
2019-04-21T19:05:47.628Z,17.32
2019-04-21T19:08:26.372Z,14.65
2019-04-21T19:11:01.161Z,16.70
2019-04-21T19:16:23.933Z,18.50
2019-04-21T19:21:04.435Z,16.37
2019-04-21T19:23:45.575Z,16.42
2019-04-21T19:26:17.332Z,15.05
2019-04-21T19:28:42.142Z,15.25
2019-04-21T19:31:11.506Z,16.67
2019-04-21T19:33:33.348Z,16.97
2019-04-21T19:35:52.968Z,14.98
2019-04-21T19:38:30.585Z,15.45
2019-04-21T19:41:12.790Z,13.62
2019-04-21T19:43:49.202Z,15.32
2019-04-21T19:46:14.538Z,13.43
2019-04-21T19:48:52.458Z,13.20
2019-04-21T19:51:13.035Z,12.68
2019-04-21T19:53:43.558Z,14.40
2019-04-21T19:55:58.264Z,14.93
2019-04-21T19:58:33.068Z,12.40
2019-04-21T20:00:59.641Z,13.03
2019-04-21T20:03:28.564Z,13.08
2019-04-21T20:06:08.173Z,15.55
2019-04-21T20:08:43.432Z,18.05
2019-04-21T20:11:14.564Z,13.88
2019-04-21T20:14:12.422Z,16.32
2019-04-21T20:16:21.622Z,13.80
2019-04-21T20:18:38.859Z,13.95
2019-04-21T20:21:01.880Z,15.30
2019-04-21T20:23:35.151Z,12.50
2019-04-21T20:26:04.556Z,13.43
2019-04-21T20:28:46.786Z,11.30
2019-04-21T20:31:18.835Z,11.45
2019-04-21T20:33:59.608Z,11.20
2019-04-21T20:38:48.408Z,15.32
2019-04-21T20:41:25.717Z,13.28
2019-04-21T20:43:51.286Z,11.68
2019-04-21T20:46:26.849Z,14.63
2019-04-21T20:48:52.277Z,14.03
2019-04-21T20:51:31.060Z,14.93
2019-04-21T20:53:53.736Z,14.83
2019-04-21T20:56:19.136Z,13.60
2019-04-21T20:58:58.132Z,12.53
2019-04-21T21:01:37.548Z,17.00
2019-04-21T21:03:58.017Z,11.48
2019-04-21T21:06:26.149Z,13.90
2019-04-21T21:09:00.791Z,13.48
2019-04-21T21:11:31.528Z,13.13
2019-04-21T21:14:07.502Z,14.93
2019-04-21T21:16:44.958Z,15.90
2019-04-21T21:19:18.687Z,12.88
2019-04-21T21:21:33.881Z,14.47
2019-04-21T21:24:04.511Z,14.70
2019-04-21T21:26:37.144Z,16.77
2019-04-21T21:29:03.265Z,14.35
2019-04-21T21:31:44.449Z,13.72
2019-04-21T21:34:16.554Z,13.75
2019-04-21T21:36:42.826Z,14.90
2019-04-21T21:39:14.314Z,11.75
2019-04-21T21:41:31.866Z,15.03
2019-04-21T21:44:03.944Z,14.53
2019-04-21T21:46:40.372Z,17.95
2019-04-21T21:49:07.314Z,14.80
2019-04-21T21:51:39.565Z,15.15
2019-04-21T21:53:59.010Z,18.27
2019-04-21T21:56:28.887Z,15.63
2019-04-21T21:59:01.316Z,14.23
2019-04-21T22:01:35.797Z,14.03
2019-04-21T22:04:10.421Z,15.70
2019-04-21T22:06:38.775Z,14.98
2019-04-21T22:09:00.755Z,14.70
2019-04-21T22:11:29.851Z,13.50
2019-04-21T22:14:04.319Z,15.98
2019-04-21T22:16:43.204Z,17.20
2019-04-21T22:19:13.280Z,15.70
2019-04-21T22:21:47.619Z,14.45
2019-04-21T22:24:11.014Z,15.63
2019-04-21T22:26:31.602Z,14.53
2019-04-21T22:29:01.512Z,16.80
2019-04-21T22:31:34.130Z,12.68
2019-04-21T22:34:05.387Z,13.50
2019-04-21T22:36:44.807Z,17.23
2019-04-21T22:39:20.924Z,15.40
2019-04-21T22:41:38.106Z,19.25
2019-04-21T22:44:04.721Z,15.55
2019-04-21T22:46:33.969Z,16.57
2019-04-21T22:49:07.369Z,14.55
2019-04-21T22:51:40.526Z,13.62
2019-04-21T22:54:06.068Z,14.18
2019-04-21T22:56:36.089Z,17.85
2019-04-21T22:59:10.979Z,14.45
2019-04-21T23:01:42.581Z,19.10
2019-04-21T23:04:08.937Z,18.30
2019-04-21T23:06:39.585Z,15.80
2019-04-21T23:09:10.849Z,16.87
2019-04-21T23:11:45.414Z,16.87
2019-04-21T23:14:13.522Z,14.43
2019-04-21T23:16:43.712Z,17.30
2019-04-21T23:19:28.022Z,16.50
2019-04-21T23:21:59.589Z,13.58
2019-04-21T23:24:35.918Z,15.55
2019-04-21T23:26:58.797Z,19.12
2019-04-21T23:29:43.757Z,16.93
2019-04-21T23:32:01.927Z,20.40
2019-04-21T23:34:23.679Z,14.20
2019-04-21T23:36:54.384Z,13.48
2019-04-21T23:39:23.648Z,15.55
2019-04-21T23:41:52.871Z,13.30
2019-04-21T23:44:20.216Z,17.15
2019-04-21T23:46:54.873Z,16.57
2019-04-21T23:49:34.570Z,11.75
2019-04-21T23:51:56.763Z,16.42
2019-04-21T23:54:20.216Z,15.43
2019-04-21T23:56:49.500Z,18.98
2019-04-21T23:59:18.476Z,15.75
